createdAt,value
2023-05-24T00:02:15.134Z,13.24
2023-05-24T00:04:42.884Z,13.26
2023-05-24T00:07:11.174Z,13.28
2023-05-24T00:09:38.745Z,13.30
2023-05-24T00:12:06.711Z,13.32
2023-05-24T00:14:34.470Z,13.33
2023-05-24T00:17:02.387Z,13.36
2023-05-24T00:19:29.875Z,13.39
2023-05-24T00:21:57.455Z,13.43
2023-05-24T00:24:25.007Z,13.44
2023-05-24T00:26:52.568Z,13.46
2023-05-24T00:29:20.030Z,13.49
2023-05-24T00:31:47.759Z,13.53
2023-05-24T00:34:16.164Z,13.56
2023-05-24T00:36:45.975Z,13.59
2023-05-24T00:39:13.530Z,13.59
2023-05-24T00:41:43.149Z,13.57
2023-05-24T00:44:11.414Z,13.52
2023-05-24T00:46:39.244Z,13.46
2023-05-24T00:49:06.843Z,13.39
2023-05-24T00:51:34.610Z,13.34
2023-05-24T00:54:02.164Z,13.29
2023-05-24T00:56:29.731Z,13.23
2023-05-24T00:58:57.410Z,13.20
2023-05-24T01:01:26.154Z,13.16
2023-05-24T01:03:54.664Z,13.14
2023-05-24T01:06:23.745Z,13.11
2023-05-24T01:09:13.735Z,13.09
2023-05-24T01:11:53.886Z,13.07
2023-05-24T01:14:21.552Z,13.05
2023-05-24T01:17:10.407Z,13.04
2023-05-24T01:19:45.024Z,13.02
2023-05-24T01:22:14.692Z,13.00
2023-05-24T01:25:04.026Z,12.95
2023-05-24T01:27:32.692Z,12.87
2023-05-24T01:30:00.975Z,12.80
2023-05-24T01:32:29.130Z,12.74
2023-05-24T01:34:57.214Z,12.67
2023-05-24T01:37:24.873Z,12.62
2023-05-24T01:39:52.632Z,12.59
2023-05-24T01:42:44.301Z,12.57
2023-05-24T01:46:07.109Z,12.59
2023-05-24T01:48:43.357Z,12.60
2023-05-24T01:51:12.671Z,12.61
2023-05-24T01:53:42.995Z,12.59
2023-05-24T01:56:10.641Z,12.58
2023-05-24T01:58:39.645Z,12.59
2023-05-24T02:01:07.867Z,12.62
2023-05-24T02:03:38.261Z,12.63
2023-05-24T02:06:06.982Z,12.68
2023-05-24T02:08:34.463Z,12.70
2023-05-24T02:11:02.865Z,12.72
2023-05-24T02:13:30.479Z,12.75
2023-05-24T02:15:57.950Z,12.76
2023-05-24T02:18:26.468Z,12.75
2023-05-24T02:20:55.134Z,12.76
2023-05-24T02:23:23.107Z,12.75
2023-05-24T02:25:50.781Z,12.78
2023-05-24T02:28:18.546Z,12.81
2023-05-24T02:30:47.125Z,12.86
2023-05-24T02:33:14.808Z,12.88
2023-05-24T02:35:42.556Z,12.90
2023-05-24T02:38:10.320Z,12.90
2023-05-24T02:40:37.982Z,12.90
2023-05-24T02:43:05.738Z,12.92
2023-05-24T02:45:33.292Z,12.93
2023-05-24T02:48:00.977Z,12.94
2023-05-24T02:50:28.617Z,12.96
2023-05-24T02:52:56.179Z,12.94
2023-05-24T02:55:24.460Z,12.94
2023-05-24T02:57:52.935Z,12.96
2023-05-24T03:00:20.999Z,13.00
2023-05-24T03:02:51.321Z,13.04
2023-05-24T03:05:18.966Z,13.07
2023-05-24T03:07:46.429Z,13.10
2023-05-24T03:10:15.770Z,13.15
2023-05-24T03:12:44.323Z,13.21
2023-05-24T03:15:12.396Z,13.28
2023-05-24T03:17:40.107Z,13.34
2023-05-24T03:20:08.482Z,13.41
2023-05-24T03:22:36.118Z,13.49
2023-05-24T03:25:03.850Z,13.57
2023-05-24T03:27:31.456Z,13.66
2023-05-24T03:30:00.151Z,13.73
2023-05-24T03:32:28.433Z,13.82
2023-05-24T03:34:57.780Z,13.89
2023-05-24T03:37:25.752Z,13.96
2023-05-24T03:39:53.435Z,14.07
2023-05-24T03:42:31.928Z,14.21
2023-05-24T03:44:59.492Z,14.36
2023-05-24T03:47:27.396Z,14.53
2023-05-24T03:49:54.874Z,14.75
2023-05-24T03:52:22.515Z,15.02
2023-05-24T03:54:49.939Z,15.30
2023-05-24T03:57:17.791Z,15.57
2023-05-24T03:59:45.475Z,15.82
2023-05-24T04:02:13.150Z,16.03
2023-05-24T04:04:40.978Z,16.20
2023-05-24T04:07:12.093Z,16.38
2023-05-24T04:09:40.598Z,16.56
2023-05-24T04:12:08.475Z,16.64
2023-05-24T04:14:36.032Z,16.63
2023-05-24T04:17:06.058Z,16.69
2023-05-24T04:19:33.910Z,16.81
2023-05-24T04:22:01.561Z,16.88
2023-05-24T04:24:29.918Z,16.91
2023-05-24T04:26:58.736Z,16.94
2023-05-24T04:29:27.019Z,16.97
2023-05-24T04:31:56.525Z,17.02
2023-05-24T04:34:25.452Z,17.11
2023-05-24T04:36:53.302Z,17.26
2023-05-24T04:39:21.035Z,17.42
2023-05-24T04:41:51.563Z,17.63
2023-05-24T04:44:19.634Z,17.83
2023-05-24T04:46:47.244Z,18.00
2023-05-24T04:49:14.953Z,18.21
2023-05-24T04:51:42.511Z,18.46
2023-05-24T04:54:10.826Z,18.69
2023-05-24T04:56:39.076Z,18.94
2023-05-24T04:59:10.310Z,19.19
2023-05-24T05:01:38.001Z,19.39
2023-05-24T05:04:05.670Z,19.58
2023-05-24T05:06:38.477Z,19.73
2023-05-24T05:09:10.645Z,19.84
2023-05-24T05:11:39.261Z,19.98
2023-05-24T05:14:09.951Z,20.13
2023-05-24T05:16:38.972Z,20.35
2023-05-24T05:19:06.858Z,20.53
2023-05-24T05:21:35.745Z,20.64
2023-05-24T05:24:04.282Z,20.77
2023-05-24T05:26:31.994Z,20.98
2023-05-24T05:28:59.646Z,21.17
2023-05-24T05:31:27.304Z,21.24
2023-05-24T05:33:54.699Z,21.26
2023-05-24T05:36:22.126Z,21.28
2023-05-24T05:38:49.566Z,21.25
2023-05-24T05:41:17.560Z,21.04
2023-05-24T05:43:44.947Z,20.85
2023-05-24T05:49:32.150Z,20.45
2023-05-24T05:51:59.914Z,20.30
2023-05-24T05:54:28.622Z,20.26
2023-05-24T05:56:56.257Z,20.32
2023-05-24T05:59:23.911Z,20.38
2023-05-24T06:01:52.078Z,20.61
2023-05-24T06:04:19.627Z,20.77
2023-05-24T06:06:50.167Z,20.72
2023-05-24T06:09:17.632Z,20.73
2023-05-24T06:11:45.247Z,20.92
2023-05-24T06:14:13.668Z,21.22
2023-05-24T06:16:43.924Z,21.45
2023-05-24T06:19:12.490Z,21.52
2023-05-24T06:21:47.347Z,21.45
2023-05-24T06:24:15.923Z,21.36
2023-05-24T06:26:43.436Z,21.30
2023-05-24T06:29:11.100Z,21.33
2023-05-24T06:31:39.578Z,21.40
2023-05-24T06:34:07.546Z,21.60
2023-05-24T06:36:43.122Z,21.85
2023-05-24T06:39:11.267Z,22.08
2023-05-24T06:41:39.836Z,22.23
2023-05-24T06:44:07.409Z,22.30
2023-05-24T06:46:36.324Z,22.37
2023-05-24T06:49:04.016Z,22.50
2023-05-24T06:51:33.709Z,22.43
2023-05-24T06:54:01.856Z,22.28
2023-05-24T06:56:29.292Z,22.24
2023-05-24T06:58:56.957Z,22.19
2023-05-24T07:01:24.566Z,22.23
2023-05-24T07:03:52.178Z,22.17
2023-05-24T07:06:20.247Z,22.19
2023-05-24T07:08:47.807Z,22.20
2023-05-24T07:11:16.088Z,22.37
2023-05-24T07:13:44.150Z,22.65
2023-05-24T07:16:12.233Z,22.98
2023-05-24T07:18:42.014Z,23.05
2023-05-24T07:21:10.308Z,22.96
2023-05-24T07:23:38.176Z,22.76
2023-05-24T07:26:06.175Z,22.56
2023-05-24T07:28:34.735Z,22.32
2023-05-24T07:31:02.901Z,22.19
2023-05-24T07:33:30.417Z,22.22
2023-05-24T07:35:59.493Z,22.44
2023-05-24T07:38:27.007Z,22.79
2023-05-24T07:40:55.184Z,23.09
2023-05-24T07:43:22.673Z,23.31
2023-05-24T07:45:50.820Z,23.51
2023-05-24T07:48:22.820Z,23.54
2023-05-24T07:50:51.049Z,23.43
2023-05-24T07:53:19.837Z,23.33
2023-05-24T07:55:47.499Z,23.24
2023-05-24T07:58:15.609Z,23.21
2023-05-24T08:00:43.228Z,23.25
2023-05-24T08:03:13.601Z,23.57
2023-05-24T08:05:41.448Z,23.82
2023-05-24T08:08:09.823Z,23.73
2023-05-24T08:10:37.736Z,23.44
2023-05-24T08:13:06.043Z,23.25
2023-05-24T08:15:33.702Z,23.06
2023-05-24T08:18:01.393Z,22.85
2023-05-24T08:20:29.061Z,22.66
2023-05-24T08:22:56.785Z,22.44
2023-05-24T08:25:24.449Z,22.27
2023-05-24T08:27:52.724Z,22.11
2023-05-24T08:30:20.563Z,21.98
2023-05-24T08:32:48.160Z,21.77
2023-05-24T08:35:20.946Z,21.64
2023-05-24T08:37:49.931Z,21.64
2023-05-24T08:40:18.102Z,21.72
2023-05-24T08:42:46.775Z,21.88
2023-05-24T08:45:15.457Z,22.03
2023-05-24T08:47:43.170Z,22.27
2023-05-24T08:50:11.211Z,22.60
2023-05-24T08:52:39.867Z,22.94
2023-05-24T08:55:08.976Z,23.13
2023-05-24T08:57:39.829Z,23.28
2023-05-24T09:00:12.839Z,23.59
2023-05-24T09:02:42.463Z,23.85
2023-05-24T09:05:11.504Z,23.97
2023-05-24T09:07:39.104Z,24.09
2023-05-24T09:10:08.197Z,24.20
2023-05-24T09:12:39.021Z,24.24
2023-05-24T09:15:08.442Z,24.15
2023-05-24T09:17:37.215Z,24.09
2023-05-24T09:20:10.905Z,24.15
2023-05-24T09:22:42.278Z,23.93
2023-05-24T09:25:11.527Z,24.02
2023-05-24T09:27:39.394Z,24.05
2023-05-24T09:30:11.206Z,23.84
2023-05-24T09:32:39.033Z,23.69
2023-05-24T09:35:10.789Z,23.69
2023-05-24T09:37:42.147Z,23.89
2023-05-24T09:40:18.749Z,24.08
2023-05-24T09:42:47.269Z,24.07
2023-05-24T09:45:15.155Z,23.98
2023-05-24T09:47:43.833Z,24.01
2023-05-24T09:50:16.299Z,24.21
2023-05-24T09:52:43.890Z,24.54
2023-05-24T09:55:21.562Z,24.80
2023-05-24T09:58:04.385Z,25.07
2023-05-24T10:00:37.103Z,25.45
2023-05-24T10:03:07.466Z,25.63
2023-05-24T10:05:36.179Z,25.94
2023-05-24T10:08:05.457Z,26.24
2023-05-24T10:10:33.642Z,26.51
2023-05-24T10:13:02.033Z,26.65
2023-05-24T10:15:30.384Z,26.79
2023-05-24T10:17:58.325Z,26.82
2023-05-24T10:20:27.159Z,26.85
2023-05-24T10:23:02.867Z,27.10
2023-05-24T10:25:30.652Z,27.50
2023-05-24T10:28:01.080Z,27.68
2023-05-24T10:30:35.915Z,27.60
2023-05-24T10:33:05.204Z,27.64
2023-05-24T10:35:33.996Z,27.80
2023-05-24T10:38:06.781Z,28.06
2023-05-24T10:40:34.538Z,28.23
2023-05-24T10:43:07.018Z,28.56
2023-05-24T10:45:37.880Z,28.89
2023-05-24T10:48:29.181Z,29.01
2023-05-24T10:50:57.680Z,28.96
2023-05-24T10:53:28.580Z,28.95
2023-05-24T10:56:01.434Z,29.18
2023-05-24T10:58:46.314Z,29.34
2023-05-24T11:01:35.042Z,29.34
2023-05-24T11:04:15.749Z,29.21
2023-05-24T11:06:50.902Z,29.03
2023-05-24T11:09:20.395Z,28.89
2023-05-24T11:11:50.335Z,28.72
2023-05-24T11:14:24.639Z,28.40
2023-05-24T11:16:52.728Z,27.89
2023-05-24T11:19:22.197Z,27.55
2023-05-24T11:23:49.361Z,27.00
2023-05-24T11:26:17.766Z,26.65
2023-05-24T11:28:45.403Z,26.27
2023-05-24T11:31:13.812Z,25.81
2023-05-24T11:33:41.591Z,25.26
2023-05-24T11:36:10.989Z,24.85
2023-05-24T11:38:38.918Z,24.59
2023-05-24T11:41:07.805Z,24.35
2023-05-24T11:43:36.694Z,23.98
2023-05-24T11:46:04.783Z,23.58
2023-05-24T11:48:33.082Z,23.21
2023-05-24T11:51:00.954Z,22.86
2023-05-24T11:53:29.177Z,22.56
2023-05-24T11:55:56.658Z,22.34
2023-05-24T11:58:26.451Z,22.12
2023-05-24T12:00:54.305Z,21.85
2023-05-24T12:03:22.268Z,21.61
2023-05-24T12:05:49.945Z,21.36
2023-05-24T12:08:17.707Z,21.07
2023-05-24T12:10:45.596Z,20.79
2023-05-24T12:13:24.483Z,20.52
2023-05-24T12:15:56.565Z,20.26
2023-05-24T12:18:29.865Z,20.03
2023-05-24T12:20:58.127Z,19.92
2023-05-24T12:23:32.352Z,19.88
2023-05-24T12:26:00.780Z,19.88
2023-05-24T12:28:32.608Z,19.88
2023-05-24T12:31:00.806Z,19.80
2023-05-24T12:33:28.514Z,19.71
2023-05-24T12:35:56.683Z,19.68
2023-05-24T12:38:28.237Z,19.63
2023-05-24T12:41:11.494Z,19.57
2023-05-24T12:43:41.018Z,19.45
2023-05-24T12:46:09.041Z,19.37
2023-05-24T12:48:36.699Z,19.34
2023-05-24T12:51:04.562Z,19.37
2023-05-24T12:53:32.648Z,19.44
2023-05-24T12:56:01.022Z,19.55
2023-05-24T12:58:29.187Z,19.75
2023-05-24T13:00:57.909Z,19.94
2023-05-24T13:03:25.548Z,20.10
2023-05-24T13:05:53.190Z,20.33
2023-05-24T13:08:21.065Z,20.58
2023-05-24T13:10:50.915Z,20.68
2023-05-24T13:13:18.736Z,20.71
2023-05-24T13:15:46.501Z,20.73
2023-05-24T13:18:14.326Z,20.74
2023-05-24T13:20:42.515Z,20.76
2023-05-24T13:23:10.609Z,20.74
2023-05-24T13:25:38.044Z,20.74
2023-05-24T13:28:05.625Z,20.71
2023-05-24T13:30:33.026Z,20.73
2023-05-24T13:33:00.671Z,20.78
2023-05-24T13:35:29.628Z,20.87
2023-05-24T13:37:58.246Z,21.00
2023-05-24T13:40:26.337Z,21.11
2023-05-24T13:42:57.005Z,21.25
2023-05-24T13:45:25.293Z,21.43
2023-05-24T13:47:53.976Z,21.61
2023-05-24T13:50:24.010Z,21.85
2023-05-24T13:52:51.653Z,22.17
2023-05-24T13:55:19.209Z,22.47
2023-05-24T13:57:51.364Z,22.79
2023-05-24T14:00:20.506Z,23.17
2023-05-24T14:02:48.597Z,23.38
2023-05-24T14:07:47.058Z,23.43
2023-05-24T14:10:14.810Z,23.26
2023-05-24T14:12:42.876Z,23.12
2023-05-24T14:15:11.059Z,23.02
2023-05-24T14:17:38.753Z,22.96
2023-05-24T14:20:07.599Z,22.86
2023-05-24T14:22:35.219Z,22.63
2023-05-24T14:25:02.814Z,22.37
2023-05-24T14:27:30.995Z,22.21
2023-05-24T14:29:58.546Z,22.07
2023-05-24T14:32:26.341Z,21.97
2023-05-24T14:34:54.885Z,21.89
2023-05-24T14:37:22.581Z,21.83
2023-05-24T14:39:50.118Z,21.87
2023-05-24T14:42:17.700Z,21.90
2023-05-24T14:44:45.338Z,21.92
2023-05-24T14:47:12.993Z,21.95
2023-05-24T14:49:40.471Z,22.00
2023-05-24T14:52:08.222Z,22.01
2023-05-24T14:54:35.668Z,22.08
2023-05-24T14:57:03.839Z,22.09
2023-05-24T14:59:31.400Z,22.11
2023-05-24T15:01:59.572Z,22.10
2023-05-24T15:04:28.362Z,22.17
2023-05-24T15:06:56.395Z,22.25
2023-05-24T15:09:24.089Z,22.34
2023-05-24T15:11:52.165Z,22.34
2023-05-24T15:14:19.834Z,22.30
2023-05-24T15:16:49.009Z,22.26
2023-05-24T15:19:16.464Z,22.29
2023-05-24T15:21:43.985Z,22.25
2023-05-24T15:24:13.457Z,22.26
2023-05-24T15:26:41.307Z,22.24
2023-05-24T15:29:09.419Z,22.16
2023-05-24T15:31:37.074Z,22.19
2023-05-24T15:34:06.134Z,22.31
2023-05-24T15:36:34.004Z,22.52
2023-05-24T15:39:01.709Z,22.70
2023-05-24T15:41:29.540Z,22.86
2023-05-24T15:43:58.415Z,23.00
2023-05-24T15:46:26.013Z,23.14
2023-05-24T15:48:54.253Z,23.32
2023-05-24T15:52:01.715Z,23.55
2023-05-24T15:54:09.335Z,23.61
2023-05-24T15:56:37.422Z,23.52
2023-05-24T15:59:05.063Z,23.39
2023-05-24T16:01:32.877Z,23.23
2023-05-24T16:04:00.848Z,22.95
2023-05-24T16:06:29.279Z,22.63
2023-05-24T16:08:56.938Z,22.38
2023-05-24T16:11:25.113Z,22.20
2023-05-24T16:13:54.406Z,21.99
2023-05-24T16:16:24.361Z,21.79
2023-05-24T16:18:51.980Z,21.60
2023-05-24T16:21:20.458Z,21.43
2023-05-24T16:23:48.255Z,21.28
2023-05-24T16:26:16.397Z,21.16
2023-05-24T16:28:44.380Z,21.05
2023-05-24T16:31:12.748Z,20.94
2023-05-24T16:33:41.024Z,20.79
2023-05-24T16:36:09.213Z,20.66
2023-05-24T16:38:37.979Z,20.56
2023-05-24T16:41:06.282Z,20.45
2023-05-24T16:43:33.955Z,20.36
2023-05-24T16:46:02.218Z,20.29
2023-05-24T16:48:31.867Z,20.27
2023-05-24T16:51:00.328Z,20.42
2023-05-24T16:53:28.142Z,20.65
2023-05-24T16:55:56.460Z,20.86
2023-05-24T16:58:25.367Z,21.00
2023-05-24T17:00:54.609Z,21.01
2023-05-24T17:03:28.390Z,20.95
2023-05-24T17:05:59.386Z,20.91
2023-05-24T17:08:28.904Z,20.88
2023-05-24T17:10:57.203Z,20.76
2023-05-24T17:13:27.395Z,20.51
2023-05-24T17:15:55.747Z,20.26
2023-05-24T17:18:29.851Z,20.01
2023-05-24T17:20:58.333Z,19.78
2023-05-24T17:23:26.552Z,19.59
2023-05-24T17:25:55.562Z,19.44
2023-05-24T17:28:30.217Z,19.29
2023-05-24T17:30:58.843Z,19.12
2023-05-24T17:33:28.149Z,18.96
2023-05-24T17:36:01.195Z,18.80
2023-05-24T17:38:29.153Z,18.63
2023-05-24T17:40:59.659Z,18.45
2023-05-24T17:43:34.211Z,18.27
2023-05-24T17:46:04.207Z,18.09
2023-05-24T17:48:33.017Z,17.93
2023-05-24T17:51:01.365Z,17.78
2023-05-24T17:53:32.183Z,17.64
2023-05-24T17:56:00.308Z,17.51
2023-05-24T17:58:30.903Z,17.40
2023-05-24T18:00:58.897Z,17.28
2023-05-24T18:03:26.547Z,17.18
2023-05-24T18:05:54.111Z,17.06
2023-05-24T18:08:22.700Z,16.96
2023-05-24T18:10:50.353Z,16.86
2023-05-24T18:13:17.834Z,16.78
2023-05-24T18:15:45.699Z,16.71
2023-05-24T18:18:13.716Z,16.65
2023-05-24T18:20:41.529Z,16.60
2023-05-24T18:23:09.367Z,16.54
2023-05-24T18:25:37.028Z,16.47
2023-05-24T18:28:04.692Z,16.41
2023-05-24T18:30:32.128Z,16.36
2023-05-24T18:33:07.155Z,16.29
2023-05-24T18:35:35.845Z,16.22
2023-05-24T18:38:04.434Z,16.16
2023-05-24T18:40:32.011Z,16.11
2023-05-24T18:42:59.475Z,16.07
2023-05-24T18:45:27.232Z,16.03
2023-05-24T18:47:54.727Z,16.02
2023-05-24T18:50:23.598Z,15.99
2023-05-24T18:52:51.760Z,15.95
2023-05-24T18:55:19.412Z,15.90
2023-05-24T18:57:47.068Z,15.85
2023-05-24T19:00:14.883Z,15.81
2023-05-24T19:02:42.579Z,15.77
2023-05-24T19:05:10.229Z,15.72
2023-05-24T19:07:38.648Z,15.68
2023-05-24T19:10:07.126Z,15.63
2023-05-24T19:12:34.778Z,15.59
2023-05-24T19:15:03.162Z,15.57
2023-05-24T19:17:30.863Z,15.56
2023-05-24T19:19:58.588Z,15.55
2023-05-24T19:22:29.417Z,15.53
2023-05-24T19:24:57.267Z,15.50
2023-05-24T19:27:24.846Z,15.46
2023-05-24T19:29:52.400Z,15.42
2023-05-24T19:32:23.107Z,15.41
2023-05-24T19:34:52.345Z,15.40
2023-05-24T19:37:21.222Z,15.40
2023-05-24T19:39:48.784Z,15.38
2023-05-24T19:42:16.222Z,15.36
2023-05-24T19:44:43.790Z,15.34
2023-05-24T19:47:11.891Z,15.30
2023-05-24T19:49:39.424Z,15.27
2023-05-24T19:52:07.400Z,15.24
2023-05-24T19:54:35.051Z,15.21
2023-05-24T19:57:02.813Z,15.18
2023-05-24T19:59:30.408Z,15.15
2023-05-24T20:01:58.072Z,15.13
2023-05-24T20:04:25.592Z,15.11
2023-05-24T20:06:53.286Z,15.09
2023-05-24T20:09:20.915Z,15.07
2023-05-24T20:11:49.094Z,15.05
2023-05-24T20:14:18.292Z,15.03
2023-05-24T20:16:46.301Z,15.03
2023-05-24T20:19:14.120Z,15.02
2023-05-24T20:21:41.987Z,15.03
2023-05-24T20:24:09.542Z,15.03
2023-05-24T20:26:37.925Z,15.02
2023-05-24T20:29:05.524Z,15.01
2023-05-24T20:31:33.671Z,14.98
2023-05-24T20:34:01.450Z,14.95
2023-05-24T20:36:29.183Z,14.91
2023-05-24T20:38:56.744Z,14.87
2023-05-24T20:41:25.225Z,14.83
2023-05-24T20:43:52.889Z,14.79
2023-05-24T20:46:22.978Z,14.75
2023-05-24T20:48:51.071Z,14.72
2023-05-24T20:51:19.651Z,14.69
2023-05-24T20:53:49.256Z,14.67
2023-05-24T20:56:18.039Z,14.62
2023-05-24T20:58:46.422Z,14.56
2023-05-24T21:01:13.894Z,14.49
2023-05-24T21:03:41.680Z,14.45
2023-05-24T21:06:09.407Z,14.41
2023-05-24T21:08:37.113Z,14.39
2023-05-24T21:11:04.657Z,14.36
2023-05-24T21:13:32.286Z,14.31
2023-05-24T21:15:59.880Z,14.26
2023-05-24T21:18:27.363Z,14.20
2023-05-24T21:20:54.889Z,14.13
2023-05-24T21:23:22.730Z,14.10
2023-05-24T21:25:50.204Z,14.05
2023-05-24T21:28:18.252Z,14.01
2023-05-24T21:30:46.040Z,14.01
2023-05-24T21:33:13.612Z,14.00
2023-05-24T21:35:41.361Z,13.98
2023-05-24T21:38:09.303Z,13.99
2023-05-24T21:40:36.964Z,14.00
2023-05-24T21:43:05.584Z,13.99
2023-05-24T21:45:33.211Z,13.97
2023-05-24T21:48:01.698Z,13.95
2023-05-24T21:50:29.660Z,13.94
2023-05-24T21:52:57.216Z,13.94
2023-05-24T21:55:25.226Z,13.93
2023-05-24T21:57:53.354Z,13.89
2023-05-24T22:00:21.530Z,13.84
2023-05-24T22:02:49.235Z,13.79
2023-05-24T22:05:16.803Z,13.73
2023-05-24T22:07:44.511Z,13.72
2023-05-24T22:10:12.913Z,13.72
2023-05-24T22:12:40.756Z,13.72
2023-05-24T22:15:09.247Z,13.72
2023-05-24T22:17:37.270Z,13.73
2023-05-24T22:20:06.287Z,13.73
2023-05-24T22:22:33.962Z,13.74
2023-05-24T22:25:02.273Z,13.75
2023-05-24T22:27:30.148Z,13.74
2023-05-24T22:29:57.966Z,13.75
2023-05-24T22:32:26.359Z,13.76
2023-05-24T22:34:54.007Z,13.74
2023-05-24T22:37:21.594Z,13.70
2023-05-24T22:39:49.227Z,13.67
2023-05-24T22:42:16.812Z,13.63
2023-05-24T22:44:44.451Z,13.62
2023-05-24T22:47:14.171Z,13.65
2023-05-24T22:49:41.923Z,13.68
2023-05-24T22:52:09.685Z,13.77
2023-05-24T22:54:37.116Z,13.84
2023-05-24T22:57:06.030Z,13.84
2023-05-24T22:59:33.589Z,13.81
2023-05-24T23:02:01.248Z,13.79
2023-05-24T23:04:29.274Z,13.78
2023-05-24T23:06:57.293Z,13.77
2023-05-24T23:09:35.096Z,13.78
2023-05-24T23:12:10.632Z,13.83
2023-05-24T23:14:39.337Z,13.83
2023-05-24T23:17:10.351Z,13.83
2023-05-24T23:19:42.660Z,13.83
2023-05-24T23:22:18.665Z,13.84
2023-05-24T23:24:47.504Z,13.86
2023-05-24T23:27:15.252Z,13.88
2023-05-24T23:29:42.789Z,13.90
2023-05-24T23:32:10.776Z,13.92
2023-05-24T23:34:38.525Z,13.93
2023-05-24T23:37:06.393Z,13.91
2023-05-24T23:41:56.017Z,13.89
2023-05-24T23:44:23.949Z,13.87
2023-05-24T23:46:52.281Z,13.88
2023-05-24T23:49:20.622Z,13.87
2023-05-24T23:51:48.263Z,13.88
2023-05-24T23:54:16.146Z,13.85
2023-05-24T23:56:43.789Z,13.84
2023-05-24T23:59:11.347Z,13.84
